Time;durP1;ratioP1;P1;durP2;ratioP2;P2;SDS_P1;SDS_P2;PMS_P1;PMS_P2;Temp;Humidity;BMP_temperature;BMP_pressure;BME280_temperature;BME280_humidity;BME280_pressure;Samples;Min_cycle;Max_cycle;Signal;HPM_P1;HPM_P2
2022/07/23 00:00:47;;;;;;;5.38;3.70;;;;;;;18.90;59.46;99768.06;5053177;28;20021;-61
2022/07/23 00:03:13;;;;;;;5.78;3.85;;;;;;;18.88;59.51;99767.41;5053198;28;20501;-60
2022/07/23 00:05:39;;;;;;;4.20;3.38;;;;;;;18.84;59.41;99765.25;5052935;28;20041;-63
2022/07/23 00:08:06;;;;;;;6.28;4.00;;;;;;;18.86;59.59;99774.03;5053399;28;20055;-62
2022/07/23 00:10:33;;;;;;;6.18;3.80;;;;;;;18.84;59.62;99770.66;5053223;28;20177;-60
2022/07/23 00:12:58;;;;;;;5.65;3.97;;;;;;;18.78;59.65;99756.78;5053216;28;20029;-60
2022/07/23 00:15:24;;;;;;;4.53;4.10;;;;;;;18.78;59.62;99764.91;5052812;28;20030;-60
2022/07/23 00:17:49;;;;;;;4.28;3.70;;;;;;;18.78;60.18;99759.50;5052847;28;20025;-60
2022/07/23 00:20:15;;;;;;;3.95;3.60;;;;;;;18.76;59.90;99766.13;5053053;28;20032;-61
2022/07/23 00:22:52;;;;;;;4.40;3.83;;;;;;;18.80;60.27;99768.28;5053079;28;20460;-61
2022/07/23 00:25:19;;;;;;;8.32;4.13;;;;;;;18.72;60.14;99775.66;5052838;28;20587;-61
2022/07/23 00:27:45;;;;;;;4.60;3.83;;;;;;;18.66;60.57;99769.06;5052528;28;20025;-60
2022/07/23 00:30:11;;;;;;;8.10;4.15;;;;;;;18.66;60.46;99777.22;5051603;28;20044;-62
2022/07/23 00:32:51;;;;;;;5.95;3.60;;;;;;;18.69;60.57;99775.97;5053004;28;20079;-60
2022/07/23 00:35:19;;;;;;;6.70;3.50;;;;;;;18.65;60.79;99783.66;5051484;28;20029;-61
2022/07/23 00:37:45;;;;;;;6.13;3.90;;;;;;;18.54;60.84;99775.91;5052507;28;20136;-61
2022/07/23 00:40:12;;;;;;;6.15;3.58;;;;;;;18.54;61.03;99782.19;5052535;28;20482;-61
2022/07/23 00:42:37;;;;;;;5.28;3.75;;;;;;;18.53;61.22;99782.34;5052706;28;20033;-62
2022/07/23 00:45:04;;;;;;;4.03;3.60;;;;;;;18.45;61.43;99770.53;5052429;28;20368;-63
2022/07/23 00:47:29;;;;;;;6.40;4.10;;;;;;;18.47;61.42;99778.50;5052269;28;20373;-62
2022/07/23 00:49:55;;;;;;;5.03;3.75;;;;;;;18.45;61.62;99777.84;5052288;28;20417;-62
2022/07/23 00:52:20;;;;;;;7.63;3.97;;;;;;;18.14;61.62;99725.28;5052224;28;20532;-61
2022/07/23 00:54:46;;;;;;;4.18;3.60;;;;;;;18.41;61.94;99790.88;5052007;28;20025;-60
2022/07/23 00:57:12;;;;;;;5.35;3.92;;;;;;;18.35;61.84;99775.34;5052028;28;20124;-60
2022/07/23 00:59:41;;;;;;;6.10;4.00;;;;;;;18.41;62.10;99785.47;5052726;28;20033;-60
2022/07/23 01:02:07;;;;;;;4.78;3.88;;;;;;;18.36;61.87;99782.44;5050252;28;20145;-59
2022/07/23 01:04:33;;;;;;;5.65;3.95;;;;;;;18.33;62.06;99777.38;5050552;28;20124;-60
2022/07/23 01:06:59;;;;;;;5.47;3.72;;;;;;;18.34;62.14;99779.06;5052026;28;20071;-59
2022/07/23 01:09:25;;;;;;;6.55;3.63;;;;;;;18.29;62.68;99784.16;5051887;28;20032;-59
2022/07/23 01:11:51;;;;;;;6.40;3.70;;;;;;;18.29;62.57;99786.84;5050701;28;20428;-60
2022/07/23 01:14:18;;;;;;;4.78;3.92;;;;;;;18.26;62.47;99789.91;5052062;28;20469;-60
2022/07/23 01:16:46;;;;;;;5.85;4.10;;;;;;;18.23;62.89;99793.84;5050322;28;20056;-60
2022/07/23 01:19:12;;;;;;;5.40;4.20;;;;;;;18.24;63.00;99798.25;5052031;28;20064;-61
2022/07/23 01:21:43;;;;;;;6.00;4.47;;;;;;;18.30;62.90;99792.13;5052255;28;20036;-60
2022/07/23 01:24:10;;;;;;;6.25;4.57;;;;;;;18.24;62.77;99783.84;5050316;28;20032;-60
2022/07/23 01:26:36;;;;;;;5.75;4.00;;;;;;;18.27;62.92;99783.47;5051543;28;20029;-60
2022/07/23 01:29:02;;;;;;;7.03;4.35;;;;;;;18.22;62.74;99776.72;5050492;28;20025;-61
2022/07/23 01:31:28;;;;;;;5.63;4.68;;;;;;;18.25;62.94;99780.09;5050409;28;20045;-61
2022/07/23 01:33:54;;;;;;;9.80;4.72;;;;;;;18.24;63.14;99778.41;5050295;28;20032;-61
2022/07/23 01:36:20;;;;;;;5.57;4.20;;;;;;;18.25;63.31;99780.09;5051498;28;20029;-59
2022/07/23 01:38:45;;;;;;;5.65;3.72;;;;;;;18.27;63.29;99784.34;5051678;28;20037;-60
2022/07/23 01:41:11;;;;;;;5.82;4.05;;;;;;;18.29;63.45;99778.72;5051550;28;20031;-60
2022/07/23 01:43:36;;;;;;;6.72;4.70;;;;;;;18.29;63.46;99778.72;5051387;28;20036;-60
2022/07/23 01:46:02;;;;;;;7.25;4.80;;;;;;;18.27;63.71;99773.50;5051578;28;20040;-61
2022/07/23 01:48:27;;;;;;;7.25;4.40;;;;;;;18.29;63.65;99776.00;5050543;28;20025;-60
2022/07/23 01:50:53;;;;;;;6.80;4.47;;;;;;;18.29;63.74;99767.88;5051076;28;20060;-60
2022/07/23 01:53:18;;;;;;;6.38;4.10;;;;;;;18.35;63.80;99783.47;5051100;28;20028;-60
2022/07/23 01:55:44;;;;;;;6.60;4.72;;;;;;;18.38;63.77;99780.41;5051664;28;20112;-61
2022/07/23 01:58:10;;;;;;;5.72;3.80;;;;;;;18.38;63.61;99777.69;5051678;28;20029;-60
2022/07/23 02:00:35;;;;;;;9.65;5.03;;;;;;;18.43;63.64;99777.13;5050926;28;20036;-61
2022/07/23 02:03:01;;;;;;;12.57;4.72;;;;;;;18.45;63.59;99784.09;5051402;28;20049;-60
2022/07/23 02:05:31;;;;;;;9.05;5.03;;;;;;;18.49;63.62;99782.72;5051205;28;20493;-61
2022/07/23 02:07:58;;;;;;;7.43;4.60;;;;;;;18.52;63.70;99786.94;5051380;28;20032;-60
2022/07/23 02:10:24;;;;;;;10.18;4.90;;;;;;;18.53;63.55;99775.06;5049771;28;20374;-60
2022/07/23 02:12:50;;;;;;;10.05;5.28;;;;;;;18.55;63.51;99770.31;5051442;28;20025;-61
2022/07/23 02:15:15;;;;;;;11.10;5.07;;;;;;;18.62;63.64;99778.59;5055633;28;20036;-60
2022/07/23 02:17:41;;;;;;;8.77;5.00;;;;;;;18.51;63.19;99753.56;5055795;28;20037;-59
2022/07/23 02:20:08;;;;;;;8.25;5.30;;;;;;;18.75;63.03;99775.28;5055165;28;20071;-60
2022/07/23 02:22:34;;;;;;;9.10;5.25;;;;;;;18.89;62.86;99779.09;5054890;28;20064;-60
2022/07/23 02:24:59;;;;;;;8.90;4.95;;;;;;;19.03;62.64;99772.09;5055294;28;20065;-60
2022/07/23 02:27:25;;;;;;;12.60;5.35;;;;;;;19.15;62.13;99767.91;5053693;28;20037;-60
2022/07/23 02:29:50;;;;;;;10.43;5.15;;;;;;;19.26;62.07;99776.66;5054912;28;20068;-60
2022/07/23 02:32:16;;;;;;;11.18;5.93;;;;;;;19.43;61.74;99782.81;5055072;28;20068;-60
2022/07/23 02:34:41;;;;;;;13.82;5.55;;;;;;;19.45;61.44;99764.44;5055041;28;20025;-60
2022/07/23 02:37:08;;;;;;;13.43;6.40;;;;;;;19.79;60.61;99787.56;5054836;28;20037;-61
2022/07/23 02:39:34;;;;;;;20.20;6.70;;;;;;;19.98;60.17;99788.06;5054717;28;20087;-60
2022/07/23 02:42:00;;;;;;;19.92;7.47;;;;;;;20.01;59.79;99760.50;5054686;28;20385;-60
2022/07/23 02:44:26;;;;;;;14.15;6.28;;;;;;;20.17;59.82;99768.50;5054745;28;20032;-61
2022/07/23 02:46:51;;;;;;;29.90;7.15;;;;;;;20.21;59.44;99771.69;5054651;28;20037;-61
2022/07/23 02:49:17;;;;;;;16.35;5.97;;;;;;;20.22;59.81;99776.09;5055015;28;20040;-61
2022/07/23 02:51:43;;;;;;;14.90;6.75;;;;;;;20.21;60.14;99775.22;5054581;28;20461;-61
2022/07/23 02:54:08;;;;;;;14.75;7.40;;;;;;;20.19;59.90;99771.84;5053328;28;20047;-60
2022/07/23 02:56:34;;;;;;;15.05;7.32;;;;;;;20.25;59.30;99773.00;5054402;28;20380;-62
2022/07/23 02:58:59;;;;;;;18.25;6.85;;;;;;;20.26;59.55;99777.38;5054172;28;21002;-61
2022/07/23 03:01:25;;;;;;;18.38;7.10;;;;;;;20.28;59.83;99771.78;5054492;28;20025;-60
2022/07/23 03:03:50;;;;;;;18.73;7.32;;;;;;;20.32;59.49;99781.22;5054155;28;20122;-60
2022/07/23 03:06:16;;;;;;;15.05;6.80;;;;;;;20.28;59.05;99769.06;5054294;28;20393;-61
2022/07/23 03:08:41;;;;;;;15.20;7.53;;;;;;;20.46;58.90;99783.06;5054580;28;20037;-60
2022/07/23 03:11:13;;;;;;;16.05;7.10;;;;;;;20.41;58.61;99763.78;5053159;28;20033;-60
2022/07/23 03:13:40;;;;;;;16.05;7.35;;;;;;;20.63;58.57;99788.31;5054722;28;20663;-60
2022/07/23 03:16:06;;;;;;;19.75;7.10;;;;;;;20.74;58.59;99787.81;5054190;28;20392;-59
2022/07/23 03:18:32;;;;;;;18.27;7.30;;;;;;;20.88;57.90;99788.00;5054047;28;20116;-60
2022/07/23 03:20:58;;;;;;;16.25;7.38;;;;;;;21.00;57.45;99775.56;5053993;28;20040;-60
2022/07/23 03:23:23;;;;;;;13.73;6.95;;;;;;;21.17;57.54;99778.88;5053833;28;20033;-60
2022/07/23 03:25:49;;;;;;;17.10;7.07;;;;;;;21.30;56.74;99778.16;5054124;28;20033;-59
2022/07/23 03:28:16;;;;;;;12.98;7.00;;;;;;;21.57;56.18;99783.81;5053976;28;20116;-60
2022/07/23 03:30:46;;;;;;;16.05;6.93;;;;;;;22.07;54.76;99793.84;5052596;28;20037;-60
2022/07/23 03:33:16;;;;;;;11.30;6.97;;;;;;;22.59;52.83;99772.53;5054002;28;20040;-60
2022/07/23 03:35:46;;;;;;;14.32;7.15;;;;;;;23.32;51.04;99784.69;5053854;28;20032;-60
2022/07/23 03:38:12;;;;;;;9.93;7.15;;;;;;;24.20;48.72;99795.56;5053592;28;20487;-59
2022/07/23 03:40:38;;;;;;;14.10;6.60;;;;;;;24.98;46.54;99796.50;5053512;28;20033;-60
2022/07/23 03:43:03;;;;;;;8.82;6.20;;;;;;;25.63;44.82;99775.41;5053902;28;20120;-60
2022/07/23 03:45:29;;;;;;;14.30;6.40;;;;;;;26.33;43.53;99782.50;5053601;28;20082;-61
2022/07/23 03:47:54;;;;;;;9.05;5.80;;;;;;;27.04;41.80;99778.44;5053362;28;20507;-60
2022/07/23 03:50:20;;;;;;;14.25;6.32;;;;;;;27.74;40.40;99771.41;5053868;28;20461;-59
2022/07/23 03:52:45;;;;;;;14.73;6.10;;;;;;;28.32;38.73;99781.81;5053554;28;20033;-60
2022/07/23 03:55:11;;;;;;;9.98;6.15;;;;;;;28.91;37.85;99781.63;5053324;28;20064;-60
2022/07/23 03:57:36;;;;;;;12.18;5.93;;;;;;;29.45;36.78;99782.31;5053269;28;20147;-60
2022/07/23 04:00:05;;;;;;;13.60;5.63;;;;;;;29.91;35.51;99776.66;5052578;28;20040;-60
2022/07/23 04:02:30;;;;;;;10.00;6.25;;;;;;;30.35;34.71;99781.41;5053515;28;20142;-61
2022/07/23 04:04:56;;;;;;;13.20;5.78;;;;;;;31.01;33.58;99771.41;5053294;28;20496;-60
2022/07/23 04:07:22;;;;;;;9.32;6.05;;;;;;;31.77;32.60;99780.66;5053235;28;20049;-66
2022/07/23 04:09:48;;;;;;;10.20;5.30;;;;;;;32.19;31.11;99765.94;5053152;28;20116;-61
2022/07/23 04:12:13;;;;;;;9.80;6.03;;;;;;;32.97;30.28;99782.88;5051893;28;20477;-60
2022/07/23 04:14:39;;;;;;;9.73;5.88;;;;;;;33.68;28.73;99776.78;5053304;28;20037;-60
2022/07/23 04:17:04;;;;;;;9.68;5.93;;;;;;;34.18;27.68;99777.81;5053070;28;20025;-61
2022/07/23 04:19:30;;;;;;;7.88;5.82;;;;;;;34.64;26.88;99787.09;5053064;28;20044;-61
2022/07/23 04:21:57;;;;;;;7.68;5.78;;;;;;;34.66;27.14;99795.16;5053129;28;20056;-59
2022/07/23 04:24:22;;;;;;;7.75;5.82;;;;;;;34.67;26.66;99769.84;5053040;28;20032;-63
2022/07/23 04:26:48;;;;;;;7.57;5.50;;;;;;;35.04;25.92;99785.22;5053021;28;20037;-60
2022/07/23 04:29:14;;;;;;;7.57;6.10;;;;;;;35.13;25.97;99790.16;5052798;28;20036;-59
2022/07/23 04:31:39;;;;;;;8.02;5.75;;;;;;;35.58;25.45;99788.13;5052762;28;20043;-61
2022/07/23 04:34:04;;;;;;;7.75;5.82;;;;;;;36.11;24.53;99791.25;5035061;28;20041;-61
2022/07/23 04:36:30;;;;;;;9.73;5.63;;;;;;;36.34;23.86;99784.00;5051736;28;20037;-62
2022/07/23 04:38:56;;;;;;;8.68;6.22;;;;;;;37.06;23.12;99801.75;5052511;28;20528;-62
2022/07/23 04:41:21;;;;;;;8.55;5.68;;;;;;;38.04;22.35;99797.31;5052920;28;20116;-61
2022/07/23 04:43:47;;;;;;;9.90;5.72;;;;;;;38.74;20.85;99786.06;5052607;28;20040;-61
2022/07/23 04:46:13;;;;;;;8.65;5.65;;;;;;;38.97;20.63;99794.53;5051048;28;20048;-60
2022/07/23 04:48:39;;;;;;;9.50;5.72;;;;;;;39.59;20.37;99793.03;5052570;28;20109;-60
2022/07/23 04:51:05;;;;;;;7.55;5.85;;;;;;;39.73;19.99;99789.28;5052537;28;20473;-62
2022/07/23 04:53:31;;;;;;;9.23;6.38;;;;;;;39.96;19.54;99787.31;5052088;28;20030;-62
2022/07/23 04:55:56;;;;;;;9.23;6.10;;;;;;;40.45;18.70;99787.31;5052254;28;20376;-60
2022/07/23 04:58:22;;;;;;;8.65;5.97;;;;;;;40.61;18.62;99781.22;5052625;28;20036;-60
2022/07/23 05:00:48;;;;;;;9.52;6.43;;;;;;;40.90;18.29;99776.97;5052157;28;20025;-61
2022/07/23 05:03:13;;;;;;;7.18;5.78;;;;;;;41.64;17.71;99781.88;5052129;28;20072;-59
2022/07/23 05:05:39;;;;;;;8.98;5.90;;;;;;;42.50;16.75;99772.59;5052236;28;20397;-61
2022/07/23 05:08:04;;;;;;;6.75;6.00;;;;;;;43.16;15.77;99768.22;5051835;28;20074;-59
2022/07/23 05:10:30;;;;;;;8.25;5.93;;;;;;;43.78;15.34;99759.97;5052040;28;20060;-62
2022/07/23 05:12:55;;;;;;;10.52;5.80;;;;;;;44.15;15.43;99762.84;5052459;28;20063;-62
2022/07/23 05:15:21;;;;;;;8.55;6.22;;;;;;;44.44;14.84;99763.72;5052161;28;20033;-60
2022/07/23 05:17:46;;;;;;;8.85;6.28;;;;;;;44.30;14.93;99763.28;5051888;28;20036;-60
2022/07/23 05:20:13;;;;;;;7.45;6.63;;;;;;;44.28;14.59;99768.47;5052265;28;20033;-61
2022/07/23 05:22:38;;;;;;;12.43;5.82;;;;;;;44.59;14.56;99759.38;5051728;28;20116;-61
2022/07/23 05:25:05;;;;;;;7.53;5.93;;;;;;;45.10;14.27;99751.56;5051851;28;20114;-61
2022/07/23 05:27:30;;;;;;;8.45;5.78;;;;;;;45.81;13.53;99762.34;5051914;28;20048;-60
2022/07/23 05:29:56;;;;;;;7.03;5.45;;;;;;;46.18;13.15;99772.56;5052130;28;20028;-59
2022/07/23 05:32:21;;;;;;;6.45;5.30;;;;;;;46.62;13.05;99765.88;5050354;28;20029;-59
2022/07/23 05:34:47;;;;;;;10.82;5.53;;;;;;;46.86;12.75;99768.41;5051614;28;20048;-62
2022/07/23 05:37:12;;;;;;;7.43;5.85;;;;;;;46.19;12.96;99760.88;5051717;28;20093;-60
2022/07/23 05:39:38;;;;;;;6.68;5.45;;;;;;;45.97;13.26;99759.50;5051871;28;20060;-60
2022/07/23 05:42:03;;;;;;;8.20;5.40;;;;;;;46.57;12.68;99759.31;5051598;28;20033;-61
2022/07/23 05:44:29;;;;;;;6.15;5.45;;;;;;;46.73;12.59;99755.63;5051392;28;20789;-60
2022/07/23 05:46:54;;;;;;;7.50;5.30;;;;;;;46.89;11.92;99741.41;5050454;28;20029;-59
2022/07/23 05:49:19;;;;;;;7.45;5.53;;;;;;;47.19;11.96;99757.75;5051846;28;20025;-60
2022/07/23 05:51:45;;;;;;;9.25;5.68;;;;;;;47.67;11.94;99753.78;5050277;28;20033;-61
2022/07/23 05:54:10;;;;;;;6.07;5.47;;;;;;;48.40;11.71;99752.94;5051558;28;20082;-60
2022/07/23 05:56:36;;;;;;;7.03;5.15;;;;;;;49.15;10.77;99763.63;5051513;28;20036;-61
2022/07/23 05:59:01;;;;;;;7.32;5.07;;;;;;;49.64;10.34;99758.03;5051582;28;20033;-61
2022/07/23 06:01:27;;;;;;;6.60;5.10;;;;;;;49.68;9.97;99756.03;5051430;28;20036;-60
2022/07/23 06:03:52;;;;;;;6.03;5.35;;;;;;;50.33;10.00;99755.72;5051082;28;20057;-60
2022/07/23 06:06:18;;;;;;;6.60;4.97;;;;;;;51.02;9.66;99754.03;5051315;28;20115;-60
2022/07/23 06:08:43;;;;;;;5.78;5.18;;;;;;;51.86;9.07;99740.66;5050291;28;20092;-61
2022/07/23 06:11:09;;;;;;;5.07;4.68;;;;;;;52.35;8.33;99749.56;5051272;28;20021;-60
2022/07/23 06:13:35;;;;;;;7.10;4.78;;;;;;;52.71;8.33;99747.81;5051160;28;20159;-60
2022/07/23 06:16:00;;;;;;;5.70;5.05;;;;;;;52.18;8.18;99745.50;5051307;28;20029;-61
2022/07/23 06:18:26;;;;;;;5.67;5.17;;;;;;;51.79;8.55;99752.09;5051629;28;20427;-61
2022/07/23 06:20:51;;;;;;;7.30;5.18;;;;;;;52.40;8.47;99748.31;5050972;28;20738;-61
2022/07/23 06:23:17;;;;;;;7.57;5.50;;;;;;;52.69;7.79;99739.66;5050817;28;20438;-60
2022/07/23 06:25:42;;;;;;;5.70;5.20;;;;;;;52.82;7.74;99737.16;5051218;28;20041;-60
2022/07/23 06:28:07;;;;;;;6.55;5.45;;;;;;;53.18;7.75;99736.09;5051273;28;20031;-61
2022/07/23 06:30:33;;;;;;;6.13;5.53;;;;;;;53.92;7.31;99727.34;5051040;28;20415;-61
2022/07/23 06:32:58;;;;;;;6.30;5.70;;;;;;;54.70;6.97;99746.13;5051250;28;20714;-60
2022/07/23 06:35:24;;;;;;;6.03;5.47;;;;;;;55.22;6.83;99742.09;5050879;28;20040;-61
2022/07/23 06:37:49;;;;;;;6.63;5.80;;;;;;;55.23;6.68;99743.75;5050812;28;20071;-62
2022/07/23 06:40:15;;;;;;;6.13;5.63;;;;;;;55.03;6.51;99745.69;5049868;28;20370;-61
2022/07/23 06:42:40;;;;;;;6.20;5.80;;;;;;;54.76;6.95;99732.94;5049687;28;20711;-60
2022/07/23 06:45:07;;;;;;;6.35;5.75;;;;;;;54.59;6.82;99733.97;5050940;28;20166;-60
2022/07/23 06:47:32;;;;;;;6.43;5.95;;;;;;;54.67;7.23;99724.03;5050631;28;20036;-61
2022/07/23 06:49:58;;;;;;;6.85;5.97;;;;;;;53.85;7.46;99733.13;5049688;28;20025;-60
2022/07/23 06:52:24;;;;;;;6.85;5.22;;;;;;;53.98;7.72;99735.47;5050703;28;20036;-61
2022/07/23 06:54:49;;;;;;;5.70;5.18;;;;;;;54.73;6.42;99732.97;5050805;28;20484;-61
2022/07/23 06:57:15;;;;;;;6.27;5.77;;;;;;;55.24;6.41;99730.19;5050811;28;20134;-60
2022/07/23 06:59:41;;;;;;;6.32;5.75;;;;;;;54.90;6.45;99731.13;5052471;28;20336;-61
2022/07/23 07:02:07;;;;;;;6.47;5.97;;;;;;;55.20;6.44;99735.97;5054338;28;20052;-60
2022/07/23 07:04:33;;;;;;;6.43;5.88;;;;;;;55.81;6.22;99730.47;5054083;28;20546;-63
2022/07/23 07:06:58;;;;;;;5.90;5.47;;;;;;;55.84;6.37;99725.94;5054458;28;20029;-61
2022/07/23 07:09:24;;;;;;;6.60;6.13;;;;;;;55.98;6.29;99728.53;5054289;28;20021;-62
2022/07/23 07:11:49;;;;;;;6.88;6.25;;;;;;;56.38;5.85;99726.97;5053989;28;20071;-61
2022/07/23 07:14:15;;;;;;;7.28;6.57;;;;;;;56.03;5.78;99732.97;5052961;28;20029;-61
2022/07/23 07:16:40;;;;;;;7.13;6.53;;;;;;;56.24;5.40;99726.00;5054493;28;20029;-61
2022/07/23 07:19:06;;;;;;;6.88;6.38;;;;;;;56.91;5.90;99724.16;5053954;28;20675;-60
2022/07/23 07:21:31;;;;;;;8.30;7.60;;;;;;;57.63;5.12;99722.41;5052836;28;20533;-61
2022/07/23 07:23:57;;;;;;;7.38;6.72;;;;;;;58.05;4.60;99723.78;5054229;28;20029;-63
2022/07/23 07:26:22;;;;;;;7.30;6.78;;;;;;;58.02;4.23;99730.47;5053950;28;20049;-59
2022/07/23 07:28:48;;;;;;;8.37;7.83;;;;;;;57.13;5.00;99721.59;5052612;28;20025;-61
2022/07/23 07:31:13;;;;;;;7.60;7.10;;;;;;;55.99;5.52;99710.06;5053996;28;20321;-60
2022/07/23 07:33:38;;;;;;;7.28;6.68;;;;;;;56.16;5.92;99716.72;5053905;28;20376;-60
2022/07/23 07:36:04;;;;;;;7.22;6.80;;;;;;;56.41;5.06;99714.56;5053654;28;20029;-62
2022/07/23 07:38:30;;;;;;;6.32;5.93;;;;;;;53.61;6.58;99712.09;5052605;28;20025;-61
2022/07/23 07:40:55;;;;;;;6.50;6.07;;;;;;;51.99;8.05;99709.66;5053706;28;20029;-61
2022/07/23 07:43:21;;;;;;;7.03;6.40;;;;;;;52.65;7.51;99719.66;5053530;28;20358;-60
2022/07/23 07:45:46;;;;;;;7.00;6.60;;;;;;;53.93;6.50;99713.84;5053204;28;20621;-61
2022/07/23 07:48:12;;;;;;;6.85;6.30;;;;;;;55.05;6.25;99721.06;5053638;28;20723;-61
2022/07/23 07:50:37;;;;;;;7.28;6.68;;;;;;;56.43;5.63;99717.81;5053392;28;20163;-61
2022/07/23 07:53:03;;;;;;;7.38;6.78;;;;;;;57.28;4.93;99716.34;5053771;28;20032;-61
2022/07/23 07:55:29;;;;;;;7.60;7.00;;;;;;;55.44;5.49;99718.03;5052468;28;20029;-60
2022/07/23 07:57:54;;;;;;;6.60;6.10;;;;;;;51.33;7.95;99699.50;5052942;28;20388;-60
2022/07/23 08:00:20;;;;;;;6.70;6.15;;;;;;;47.74;10.32;99711.34;5053166;28;20036;-62
2022/07/23 08:02:50;;;;;;;5.97;5.53;;;;;;;44.64;13.00;99724.44;5053565;28;20132;-61
2022/07/23 08:05:26;;;;;;;5.65;5.25;;;;;;;43.43;13.84;99712.47;5053189;28;20489;-61
2022/07/23 08:07:52;;;;;;;5.60;5.10;;;;;;;44.50;13.47;99707.88;5053190;28;20072;-60
2022/07/23 08:10:18;;;;;;;5.82;5.43;;;;;;;44.95;13.01;99710.78;5053060;28;20084;-61
2022/07/23 08:12:52;;;;;;;6.13;5.70;;;;;;;44.26;12.88;99708.75;5053277;28;20043;-61
2022/07/23 08:15:20;;;;;;;6.10;5.60;;;;;;;44.55;13.19;99690.72;5053167;28;20040;-62
2022/07/23 08:17:47;;;;;;;5.93;5.53;;;;;;;45.57;12.40;99714.06;5052893;28;20117;-62
2022/07/23 08:20:14;;;;;;;5.25;4.85;;;;;;;46.32;11.68;99713.47;5051881;28;20037;-59
2022/07/23 08:22:59;;;;;;;5.70;5.30;;;;;;;47.70;10.80;99702.81;5053261;28;20052;-62
2022/07/23 08:25:34;;;;;;;6.15;5.55;;;;;;;47.43;10.98;99705.59;5052746;28;20028;-61
2022/07/23 08:28:02;;;;;;;5.65;5.25;;;;;;;45.59;11.97;99688.28;5052687;28;20473;-60
2022/07/23 08:30:29;;;;;;;6.32;5.82;;;;;;;43.74;13.35;99711.13;5052903;28;20083;-61
2022/07/23 08:33:00;;;;;;;5.70;5.30;;;;;;;42.10;14.67;99706.31;5052907;28;20550;-61
2022/07/23 08:35:31;;;;;;;6.25;5.75;;;;;;;40.86;16.01;99705.81;5052668;28;20029;-61
2022/07/23 08:37:58;;;;;;;6.60;6.00;;;;;;;39.43;18.01;99675.00;5052664;28;20120;-60
2022/07/23 08:40:29;;;;;;;6.63;6.13;;;;;;;38.42;18.77;99701.19;5051486;28;20025;-61
2022/07/23 08:42:56;;;;;;;7.15;6.57;;;;;;;37.04;20.06;99695.22;5051209;28;20032;-61
2022/07/23 08:45:23;;;;;;;7.18;6.47;;;;;;;35.79;21.71;99698.81;5052312;28;20058;-61
2022/07/23 08:47:54;;;;;;;7.50;6.70;;;;;;;34.87;23.05;99704.09;5052010;28;20025;-61
2022/07/23 08:50:21;;;;;;;7.45;6.78;;;;;;;34.05;24.18;99681.22;5052349;28;20029;-61
2022/07/23 08:52:48;;;;;;;7.47;6.65;;;;;;;33.72;24.82;99697.38;5051000;28;20033;-61
2022/07/23 08:55:17;;;;;;;7.50;6.60;;;;;;;33.76;24.88;99695.72;5051137;28;20116;-61
2022/07/23 08:57:42;;;;;;;7.65;6.45;;;;;;;33.85;24.44;99680.16;5050985;28;20101;-61
2022/07/23 09:00:08;;;;;;;7.30;6.65;;;;;;;34.02;24.19;99681.78;5052410;28;20064;-61
2022/07/23 09:02:42;;;;;;;6.72;6.18;;;;;;;34.13;23.58;99682.56;5052279;28;20048;-61
2022/07/23 09:05:10;;;;;;;7.82;7.03;;;;;;;34.13;24.34;99682.56;5050746;28;20033;-60
2022/07/23 09:07:35;;;;;;;7.20;6.50;;;;;;;34.28;24.05;99674.13;5050405;28;20033;-62
2022/07/23 09:10:10;;;;;;;6.85;6.32;;;;;;;34.43;23.75;99689.88;5051947;28;20052;-60
2022/07/23 09:12:37;;;;;;;11.30;7.32;;;;;;;34.18;24.06;99679.75;5052116;28;20041;-61
2022/07/23 09:15:06;;;;;;;7.43;6.43;;;;;;;33.87;24.10;99686.25;5051628;28;20053;-61
2022/07/23 09:17:42;;;;;;;7.70;7.03;;;;;;;33.61;23.94;99685.47;5051361;28;20036;-62
2022/07/23 09:20:15;;;;;;;7.85;7.05;;;;;;;33.23;24.99;99677.47;5052086;28;20028;-60
2022/07/23 09:22:46;;;;;;;7.43;6.75;;;;;;;33.13;24.25;99678.31;5051177;28;20116;-62
2022/07/23 09:25:14;;;;;;;8.05;7.30;;;;;;;32.95;24.36;99682.47;5051598;28;20029;-62
2022/07/23 09:27:57;;;;;;;7.25;6.65;;;;;;;33.09;24.52;99688.31;5051789;28;20037;-60
2022/07/23 09:30:28;;;;;;;7.45;6.75;;;;;;;32.84;24.54;99680.81;5051758;28;20036;-60
2022/07/23 09:33:09;;;;;;;10.15;7.22;;;;;;;32.74;25.57;99676.91;5051147;28;20040;-61
2022/07/23 09:35:44;;;;;;;7.38;6.68;;;;;;;32.59;25.62;99682.44;5051265;28;20086;-61
2022/07/23 09:38:09;;;;;;;7.63;6.93;;;;;;;32.44;26.10;99672.16;5050210;28;20062;-61
2022/07/23 09:40:35;;;;;;;7.68;6.75;;;;;;;32.44;26.51;99678.53;5051212;28;20560;-62
2022/07/23 09:43:00;;;;;;;7.85;7.00;;;;;;;32.49;26.98;99674.94;5051058;28;20551;-62
2022/07/23 09:45:25;;;;;;;8.65;7.63;;;;;;;32.68;26.40;99671.66;5051238;28;20036;-60
2022/07/23 09:48:10;;;;;;;8.00;7.30;;;;;;;33.00;25.93;99673.34;5051771;28;20029;-60
2022/07/23 09:50:35;;;;;;;8.63;7.82;;;;;;;32.83;26.66;99668.06;5051364;28;20041;-60
2022/07/23 09:53:01;;;;;;;10.07;7.38;;;;;;;32.49;26.43;99664.66;5051394;28;20040;-60
2022/07/23 09:55:38;;;;;;;7.78;7.07;;;;;;;32.45;26.66;99668.28;5051207;28;20095;-59
2022/07/23 09:58:15;;;;;;;8.30;7.45;;;;;;;32.38;26.34;99667.69;5050425;28;20028;-60
2022/07/23 10:00:41;;;;;;;9.73;6.95;;;;;;;32.38;26.24;99640.00;5051486;28;20477;-60
2022/07/23 10:03:07;;;;;;;8.30;7.53;;;;;;;32.83;26.08;99668.06;5050746;28;20051;-61
2022/07/23 10:05:36;;;;;;;8.82;7.18;;;;;;;33.16;25.37;99661.16;5050878;28;20048;-60
2022/07/23 10:08:02;;;;;;;8.02;7.30;;;;;;;33.44;25.02;99660.81;5051098;28;20078;-60
2022/07/23 10:10:29;;;;;;;8.15;7.50;;;;;;;33.54;25.43;99630.28;5050920;28;20025;-62
2022/07/23 10:15:30;;;;;;;8.02;7.22;;;;;;;33.59;25.00;99646.91;5049566;28;20029;-61
2022/07/23 10:17:56;;;;;;;7.95;7.25;;;;;;;33.31;25.53;99651.13;5051167;28;20032;-61
2022/07/23 10:20:21;;;;;;;7.88;7.18;;;;;;;33.02;26.56;99654.50;5050643;28;20033;-60
2022/07/23 10:23:08;;;;;;;8.27;7.40;;;;;;;32.93;26.29;99660.59;5049082;28;20086;-60
2022/07/23 10:25:51;;;;;;;9.15;7.32;;;;;;;32.64;27.15;99660.28;5050827;28;20087;-62
2022/07/23 10:28:40;;;;;;;9.48;6.75;;;;;;;32.41;27.12;99654.13;5050951;28;20033;-60
2022/07/23 10:31:24;;;;;;;8.40;6.97;;;;;;;32.41;27.41;99651.38;5049525;28;20044;-60
2022/07/23 10:33:59;;;;;;;7.38;6.68;;;;;;;32.57;27.13;99645.84;5051350;28;20021;-62
2022/07/23 10:36:43;;;;;;;7.72;7.07;;;;;;;32.70;26.79;99636.97;5054913;28;20163;-60
2022/07/23 10:39:17;;;;;;;8.45;7.65;;;;;;;33.01;25.85;99637.00;5054667;28;20056;-61
2022/07/23 10:41:43;;;;;;;8.10;7.40;;;;;;;33.06;26.23;99622.31;5054891;28;20028;-61
2022/07/23 10:44:12;;;;;;;10.43;7.05;;;;;;;33.23;25.71;99627.53;5053437;28;20029;-61
2022/07/23 10:47:07;;;;;;;7.97;7.28;;;;;;;33.56;25.33;99624.44;5054109;28;20044;-60
2022/07/23 10:49:33;;;;;;;8.60;7.53;;;;;;;33.53;24.96;99617.53;5053343;28;20041;-61
2022/07/23 10:52:25;;;;;;;7.93;7.22;;;;;;;33.73;24.45;99624.09;5054437;28;20029;-61
2022/07/23 10:54:53;;;;;;;7.90;7.20;;;;;;;33.51;24.49;99608.63;5053292;28;20484;-60
2022/07/23 10:57:26;;;;;;;7.55;6.85;;;;;;;33.40;24.60;99615.31;5054566;28;20066;-62
2022/07/23 11:02:34;;;;;;;10.15;7.45;;;;;;;32.95;25.92;99615.94;5052698;28;20055;-62
2022/07/23 11:05:04;;;;;;;8.15;7.05;;;;;;;32.70;26.15;99612.03;5054534;28;20087;-62
2022/07/23 11:07:30;;;;;;;7.90;7.10;;;;;;;32.43;26.82;99604.81;5054477;28;20028;-60
2022/07/23 11:09:55;;;;;;;9.65;6.88;;;;;;;32.05;26.86;99607.78;5054303;28;20499;-62
2022/07/23 11:12:21;;;;;;;8.48;7.68;;;;;;;31.64;27.80;99610.34;5054164;28;20354;-61
2022/07/23 11:15:04;;;;;;;7.77;6.87;;;;;;;31.47;27.47;99621.63;5052657;28;20063;-61
2022/07/23 11:17:34;;;;;;;11.40;7.38;;;;;;;31.10;28.49;99611.38;5053066;28;20262;-60
2022/07/23 11:20:08;;;;;;;9.25;8.30;;;;;;;31.02;29.12;99615.50;5053869;28;20116;-60
2022/07/23 11:22:43;;;;;;;7.90;7.20;;;;;;;30.88;28.77;99615.13;5053894;28;20037;-60
2022/07/23 11:25:13;;;;;;;7.70;7.00;;;;;;;30.75;29.18;99617.22;5054285;28;20716;-61
2022/07/23 11:27:44;;;;;;;8.43;7.72;;;;;;;30.64;29.10;99621.00;5052558;28;20094;-62
2022/07/23 11:30:30;;;;;;;8.90;8.02;;;;;;;30.64;28.79;99619.06;5053871;28;20039;-62
2022/07/23 11:33:10;;;;;;;;;;;;;;;30.84;28.44;99617.56;5053584;28;20447;-61
2022/07/23 11:35:37;;;;;;;8.50;7.40;;;;;;;30.44;29.91;99616.94;5052422;28;19909;-61
2022/07/23 11:38:05;;;;;;;8.30;7.50;;;;;;;30.40;29.83;99614.94;5053597;28;20033;-61
2022/07/23 11:40:30;;;;;;;10.32;7.75;;;;;;;30.25;30.26;99604.56;5053556;28;20036;-61